Time;durP1;ratioP1;P1;durP2;ratioP2;P2;SDS_P1;SDS_P2;PMS_P1;PMS_P2;Temp;Humidity;BMP_temperature;BMP_pressure;BME280_temperature;BME280_humidity;BME280_pressure;Samples;Min_cycle;Max_cycle;Signal;HPM_P1;HPM_P2
2021/09/04 00:00:05;;;;;;;;;;;;;;;21.79;65.75;101776.25;7286137;19;151655;-49
2021/09/04 00:02:32;;;;;;;;;;;;;;;21.82;65.93;101777.63;7289402;19;152973;-50
2021/09/04 00:04:59;;;;;;;;;;;;;;;21.82;65.78;101771.97;7284858;19;152087;-50
2021/09/04 00:07:28;;;;;;;;;;;;;;;21.82;65.91;101763.53;7284522;19;152028;-50
2021/09/04 00:09:55;;;;;;;;;;;;;;;21.81;65.99;101770.31;7286642;19;154113;-50
2021/09/04 00:12:22;;;;;;;;;;;;;;;21.82;66.36;101767.19;7293074;19;153822;-50
2021/09/04 00:14:49;;;;;;;;;;;;;;;21.82;66.35;101761.56;7286264;19;152791;-50
2021/09/04 00:17:16;;;;;;;;;;;;;;;21.81;66.59;101757.06;7284305;19;153599;-49
2021/09/04 00:19:43;;;;;;;;;;;;;;;21.81;66.66;101753.41;7287364;19;151542;-50
2021/09/04 00:22:10;;;;;;;;;;;;;;;21.81;66.61;101753.41;7284258;19;152634;-50
2021/09/04 00:24:37;;;;;;;;;;;;;;;21.82;66.26;101755.09;7283578;19;152998;-50
2021/09/04 00:27:06;;;;;;;;;;;;;;;21.83;66.88;101748.34;7286920;19;151914;-50
2021/09/04 00:29:34;;;;;;;;;;;;;;;21.82;66.63;101746.66;7287272;19;152767;-50
2021/09/04 00:32:02;;;;;;;;;;;;;;;21.83;66.59;101762.41;7281835;19;152318;-50
2021/09/04 00:34:29;;;;;;;;;;;;;;;21.83;66.77;101746.38;7292861;19;151985;-49
2021/09/04 00:36:56;;;;;;;;;;;;;;;21.82;67.01;101741.88;7276730;19;154627;-50
2021/09/04 00:39:23;;;;;;;;;;;;;;;21.85;67.17;101748.91;7287867;19;151548;-50
2021/09/04 00:41:50;;;;;;;;;;;;;;;21.84;67.05;101741.59;7283400;19;152651;-50
2021/09/04 00:44:18;;;;;;;;;;;;;;;21.84;66.74;101747.22;7284300;19;153596;-51
2021/09/04 00:46:45;;;;;;;;;;;;;;;21.83;67.06;101752.00;7284066;19;152327;-50
2021/09/04 00:49:12;;;;;;;;;;;;;;;21.85;66.84;101748.91;7284978;19;153308;-50
2021/09/04 00:51:39;;;;;;;;;;;;;;;21.85;67.43;101746.09;7283179;19;153534;-50
2021/09/04 00:54:06;;;;;;;;;;;;;;;21.86;67.29;101740.16;7290233;19;154351;-50
2021/09/04 00:56:36;;;;;;;;;;;;;;;21.87;67.02;101746.63;7282037;19;153705;-50
2021/09/04 00:59:05;;;;;;;;;;;;;;;21.86;67.39;101742.13;7286156;19;151774;-50
2021/09/04 01:01:32;;;;;;;;;;;;;;;21.87;67.19;101738.19;7282695;19;153387;-50
2021/09/04 01:04:00;;;;;;;;;;;;;;;21.87;67.22;101739.00;7281112;19;153742;-50
2021/09/04 01:06:27;;;;;;;;;;;;;;;21.89;67.33;101744.34;7281940;19;152167;-50
2021/09/04 01:08:55;;;;;;;;;;;;;;;21.88;67.50;101737.88;7284452;19;152139;-50
2021/09/04 01:11:22;;;;;;;;;;;;;;;21.89;67.66;101733.09;7277259;19;152224;-50
2021/09/04 01:13:50;;;;;;;;;;;;;;;21.87;67.60;101724.94;7284434;19;152115;-49
2021/09/04 01:16:17;;;;;;;;;;;;;;;21.88;67.09;101728.59;7289482;19;153097;-50
2021/09/04 01:18:44;;;;;;;;;;;;;;;21.86;67.40;101723.25;7283870;19;151877;-50
2021/09/04 01:21:11;;;;;;;;;;;;;;;21.89;67.43;101722.69;7285928;19;153948;-51
2021/09/04 01:23:39;;;;;;;;;;;;;;;21.90;67.66;101729.13;7283756;19;152168;-50
2021/09/04 01:26:07;;;;;;;;;;;;;;;21.91;67.42;101728.00;7283864;19;154360;-50
2021/09/04 01:28:34;;;;;;;;;;;;;;;21.88;67.07;101732.25;7285880;19;153689;-50
2021/09/04 01:31:02;;;;;;;;;;;;;;;21.88;67.31;101717.34;7281426;19;154350;-50
2021/09/04 01:33:29;;;;;;;;;;;;;;;21.88;67.52;101726.63;7282814;19;151983;-50
2021/09/04 01:35:56;;;;;;;;;;;;;;;21.89;67.70;101724.66;7282679;19;152284;-50
2021/09/04 01:38:23;;;;;;;;;;;;;;;21.91;67.88;101726.03;7286780;19;152877;-50
2021/09/04 01:40:50;;;;;;;;;;;;;;;21.93;67.85;101722.94;7284837;19;153492;-50
2021/09/04 01:43:17;;;;;;;;;;;;;;;21.93;67.32;101720.97;7281408;19;153519;-50
2021/09/04 01:45:44;;;;;;;;;;;;;;;21.95;67.73;101717.84;7285221;19;152086;-50
2021/09/04 01:48:11;;;;;;;;;;;;;;;21.92;67.75;101724.91;7285390;19;152370;-50
2021/09/04 01:50:38;;;;;;;;;;;;;;;21.92;67.68;101724.06;7283488;19;158613;-50
2021/09/04 01:53:05;;;;;;;;;;;;;;;21.92;67.43;101721.25;7283627;19;152684;-50
2021/09/04 01:55:32;;;;;;;;;;;;;;;21.92;67.73;101726.88;7284164;19;153508;-50
2021/09/04 01:57:59;;;;;;;;;;;;;;;21.91;67.89;101725.19;7282162;19;153305;-50
2021/09/04 02:00:26;;;;;;;;;;;;;;;21.91;67.65;101716.75;7292377;19;151657;-50
2021/09/04 02:02:54;;;;;;;;;;;;;;;21.91;67.51;101722.38;7283598;19;152549;-50
2021/09/04 02:05:21;;;;;;;;;;;;;;;21.90;67.66;101720.69;7283999;19;151862;-50
2021/09/04 02:07:48;;;;;;;;;;;;;;;21.90;67.45;101717.88;7283504;19;152677;-50
2021/09/04 02:10:15;;;;;;;;;;;;;;;21.90;67.79;101715.06;7282702;19;152277;-49
2021/09/04 02:12:42;;;;;;;;;;;;;;;21.91;67.95;101709.13;7283769;19;151923;-50
2021/09/04 02:15:10;;;;;;;;;;;;;;;21.91;68.08;101709.13;7284790;19;152077;-50
2021/09/04 02:17:37;;;;;;;;;;;;;;;21.94;68.07;101713.38;7279385;19;153930;-49
2021/09/04 02:20:04;;;;;;;;;;;;;;;21.92;68.34;101721.25;7283041;19;151824;-50
2021/09/04 02:22:31;;;;;;;;;;;;;;;21.93;68.11;101709.72;7290531;19;153175;-50
2021/09/04 02:24:58;;;;;;;;;;;;;;;21.93;68.38;101706.06;7285015;19;152122;-50
2021/09/04 02:27:26;;;;;;;;;;;;;;;21.92;67.95;101705.19;7282703;19;153595;-50
2021/09/04 02:29:53;;;;;;;;;;;;;;;21.92;68.06;101704.34;7280229;19;153905;-50
2021/09/04 02:32:20;;;;;;;;;;;;;;;21.92;68.35;101693.94;7283116;19;151965;-49
2021/09/04 02:34:47;;;;;;;;;;;;;;;21.94;68.54;101699.31;7280916;19;152607;-50
2021/09/04 02:37:14;;;;;;;;;;;;;;;21.93;67.85;101694.81;7279501;19;153972;-50
2021/09/04 02:39:42;;;;;;;;;;;;;;;21.93;68.60;101701.28;7277665;19;151861;-50
2021/09/04 02:42:09;;;;;;;;;;;;;;;21.93;68.34;101695.66;7281234;19;153670;-50
2021/09/04 02:44:36;;;;;;;;;;;;;;;21.93;68.00;101692.84;7289265;19;152598;-50
2021/09/04 02:47:03;;;;;;;;;;;;;;;21.94;68.49;101688.06;7281047;19;155037;-50
2021/09/04 02:49:30;;;;;;;;;;;;;;;21.97;68.08;101688.28;7283213;19;153364;-50
2021/09/04 02:51:57;;;;;;;;;;;;;;;21.95;68.19;101678.44;7283300;19;151786;-50
2021/09/04 02:54:24;;;;;;;;;;;;;;;21.96;67.82;101683.78;7277762;19;152666;-49
2021/09/04 02:56:51;;;;;;;;;;;;;;;21.95;67.86;101682.09;7279978;19;154648;-50
2021/09/04 02:59:18;;;;;;;;;;;;;;;21.97;68.17;101684.63;7280604;19;151702;-50
2021/09/04 03:01:45;;;;;;;;;;;;;;;21.97;67.92;101684.63;7281190;19;153597;-50
2021/09/04 03:04:12;;;;;;;;;;;;;;;21.96;68.41;101685.75;7288032;19;152575;-50
2021/09/04 03:06:39;;;;;;;;;;;;;;;21.96;67.84;101685.75;7279982;19;152686;-50
2021/09/04 03:09:06;;;;;;;;;;;;;;;21.99;68.03;101679.53;7280792;19;154454;-50
2021/09/04 03:11:33;;;;;;;;;;;;;;;21.98;68.39;101675.06;7280968;19;152169;-50
2021/09/04 03:14:01;;;;;;;;;;;;;;;21.99;67.94;101682.34;7279333;19;153155;-50
2021/09/04 03:16:28;;;;;;;;;;;;;;;21.99;68.02;101677.56;7281763;19;153841;-50
2021/09/04 03:18:55;;;;;;;;;;;;;;;22.01;68.05;101680.06;7280873;19;151906;-50
2021/09/04 03:21:22;;;;;;;;;;;;;;;21.99;67.91;101673.91;7283063;19;153556;-50
2021/09/04 03:23:49;;;;;;;;;;;;;;;21.99;68.14;101668.28;7281027;19;153979;-50
2021/09/04 03:26:16;;;;;;;;;;;;;;;21.97;68.01;101674.22;7288681;19;151888;-50
2021/09/04 03:28:43;;;;;;;;;;;;;;;21.99;67.89;101671.09;7281376;19;153151;-50
2021/09/04 03:31:12;;;;;;;;;;;;;;;21.96;68.47;101661.28;7279682;19;152580;-50
2021/09/04 03:33:39;;;;;;;;;;;;;;;21.97;68.35;101668.59;7278732;19;152663;-50
2021/09/04 03:36:06;;;;;;;;;;;;;;;21.96;68.46;101663.25;7280273;19;154565;-50
2021/09/04 03:38:33;;;;;;;;;;;;;;;21.98;68.49;101663.81;7272353;19;152012;-50
2021/09/04 03:41:00;;;;;;;;;;;;;;;21.97;68.39;101662.97;7279085;19;151999;-50
2021/09/04 03:43:26;;;;;;;;;;;;;;;21.97;68.28;101657.34;7284156;19;152298;-50
2021/09/04 03:45:53;;;;;;;;;;;;;;;21.96;68.46;101658.47;7288873;19;152113;-50
2021/09/04 03:48:21;;;;;;;;;;;;;;;21.96;68.70;101646.38;7293676;19;152353;-50
2021/09/04 03:50:48;;;;;;;;;;;;;;;21.97;68.58;101654.53;7287370;19;151704;-50
2021/09/04 03:53:15;;;;;;;;;;;;;;;21.95;68.91;101651.16;7285948;19;152076;-51
2021/09/04 03:55:41;;;;;;;;;;;;;;;21.94;68.73;101645.84;7285329;19;153327;-50
2021/09/04 03:58:08;;;;;;;;;;;;;;;21.95;68.56;101647.50;7287331;19;151959;-50
2021/09/04 04:00:35;;;;;;;;;;;;;;;21.95;68.45;101653.13;7288921;19;152068;-50
2021/09/04 04:03:02;;;;;;;;;;;;;;;21.95;68.75;101650.31;7287275;19;154276;-50
2021/09/04 04:05:30;;;;;;;;;;;;;;;21.95;69.01;101648.34;7287120;19;153482;-50
2021/09/04 04:07:56;;;;;;;;;;;;;;;21.96;68.78;101646.38;7285317;19;151878;-52
2021/09/04 04:10:24;;;;;;;;;;;;;;;21.95;68.65;101647.50;7294557;19;153624;-50
2021/09/04 04:12:50;;;;;;;;;;;;;;;21.95;69.11;101641.88;7287884;19;152998;-50
2021/09/04 04:15:18;;;;;;;;;;;;;;;21.94;68.96;101641.03;7283921;19;153081;-50
2021/09/04 04:17:44;;;;;;;;;;;;;;;21.94;68.89;101638.22;7288415;19;152191;-50
2021/09/04 04:20:12;;;;;;;;;;;;;;;21.95;69.16;101641.88;7288044;19;152606;-50
2021/09/04 04:22:39;;;;;;;;;;;;;;;21.96;69.36;101643.56;7285335;19;153839;-50
2021/09/04 04:25:06;;;;;;;;;;;;;;;21.99;68.84;101638.16;7284246;19;154035;-51
2021/09/04 04:27:34;;;;;;;;;;;;;;;21.97;69.08;101631.16;7287184;19;153801;-50
2021/09/04 04:30:01;;;;;;;;;;;;;;;21.94;68.89;101624.16;7282154;19;152939;-49
2021/09/04 04:32:28;;;;;;;;;;;;;;;21.93;68.83;101636.56;7294751;19;151748;-50
2021/09/04 04:34:55;;;;;;;;;;;;;;;21.92;68.38;101628.38;7283682;19;154162;-50
2021/09/04 04:37:22;;;;;;;;;;;;;;;21.91;68.73;101635.16;7288053;19;151706;-50
2021/09/04 04:39:49;;;;;;;;;;;;;;;21.93;68.12;101628.13;7282229;19;152666;-50
2021/09/04 04:42:16;;;;;;;;;;;;;;;21.94;68.15;101628.97;7280168;19;153896;-51
2021/09/04 04:44:43;;;;;;;;;;;;;;;21.91;68.46;101626.69;7286541;19;152135;-50
2021/09/04 04:47:10;;;;;;;;;;;;;;;21.90;68.54;101625.03;7286043;19;153366;-50
2021/09/04 04:49:37;;;;;;;;;;;;;;;21.91;68.51;101635.97;7282995;19;153033;-50
2021/09/04 04:52:04;;;;;;;;;;;;;;;21.90;68.32;101630.66;7284725;19;151901;-50
2021/09/04 04:54:31;;;;;;;;;;;;;;;21.91;68.77;101635.16;7286912;19;153664;-50
2021/09/04 04:56:58;;;;;;;;;;;;;;;21.89;68.55;101631.81;7286153;19;152335;-49
2021/09/04 04:59:25;;;;;;;;;;;;;;;21.88;68.48;101630.97;7284497;19;151900;-50
2021/09/04 05:01:52;;;;;;;;;;;;;;;21.88;68.71;101624.50;7283889;19;152370;-50
2021/09/04 05:04:19;;;;;;;;;;;;;;;21.88;68.32;101632.94;7286206;19;151688;-50
2021/09/04 05:06:46;;;;;;;;;;;;;;;21.88;68.31;101635.75;7286078;19;152728;-50
2021/09/04 05:09:13;;;;;;;;;;;;;;;21.88;68.64;101636.59;7283334;19;152907;-50
2021/09/04 05:11:40;;;;;;;;;;;;;;;21.87;68.32;101636.88;7286811;19;151771;-50
2021/09/04 05:14:07;;;;;;;;;;;;;;;21.89;68.74;101643.06;7291643;19;153252;-51
2021/09/04 05:16:34;;;;;;;;;;;;;;;21.87;68.73;101645.31;7284265;19;152726;-50
2021/09/04 05:19:01;;;;;;;;;;;;;;;21.88;68.63;101642.22;7284187;19;152944;-50
2021/09/04 05:21:28;;;;;;;;;;;;;;;21.87;68.57;101640.53;7282935;19;153574;-50
2021/09/04 05:23:55;;;;;;;;;;;;;;;21.87;68.55;101642.50;7285301;19;152325;-50
2021/09/04 05:26:22;;;;;;;;;;;;;;;21.89;68.88;101645.88;7283896;19;151694;-50
2021/09/04 05:28:49;;;;;;;;;;;;;;;21.87;68.50;101640.53;7285059;19;154029;-50
2021/09/04 05:31:16;;;;;;;;;;;;;;;21.87;68.86;101637.72;7283115;19;151939;-50
2021/09/04 05:33:43;;;;;;;;;;;;;;;21.87;69.03;101639.69;7284227;19;152691;-50
2021/09/04 05:36:10;;;;;;;;;;;;;;;21.88;68.56;101639.41;7291562;19;152846;-50
2021/09/04 05:38:37;;;;;;;;;;;;;;;21.88;68.93;101641.38;7284898;19;152606;-50
2021/09/04 05:41:06;;;;;;;;;;;;;;;21.88;68.78;101647.00;7279284;19;152643;-50
2021/09/04 05:43:33;;;;;;;;;;;;;;;21.91;68.53;101643.59;7279639;19;152327;-49
2021/09/04 05:46:00;;;;;;;;;;;;;;;21.88;68.91;101641.38;7284597;19;153758;-50
2021/09/04 05:48:27;;;;;;;;;;;;;;;21.87;68.94;101636.88;7282504;19;153919;-50
2021/09/04 05:50:54;;;;;;;;;;;;;;;21.87;69.04;101640.53;7285806;19;151948;-50
2021/09/04 05:53:21;;;;;;;;;;;;;;;21.87;69.29;101637.72;7282434;19;153724;-50
2021/09/04 05:55:48;;;;;;;;;;;;;;;21.87;69.17;101634.91;7281321;19;153775;-51
2021/09/04 05:58:15;;;;;;;;;;;;;;;21.87;68.88;101643.34;7291932;19;152385;-50
2021/09/04 06:00:42;;;;;;;;;;;;;;;21.86;68.70;101646.47;7282081;19;154222;-50
2021/09/04 06:03:10;;;;;;;;;;;;;;;21.86;69.01;101641.69;7281822;19;152195;-50
2021/09/04 06:05:37;;;;;;;;;;;;;;;21.85;68.88;101639.19;7282322;19;152531;-50
2021/09/04 06:08:04;;;;;;;;;;;;;;;21.85;68.87;101642.81;7280712;19;152691;-50
2021/09/04 06:10:31;;;;;;;;;;;;;;;21.84;68.76;101646.78;7283494;19;151660;-50
2021/09/04 06:13:02;;;;;;;;;;;;;;;21.84;68.90;101641.16;7285173;19;153324;-49
2021/09/04 06:15:30;;;;;;;;;;;;;;;21.84;68.65;101651.56;7279925;19;153294;-50
2021/09/04 06:17:57;;;;;;;;;;;;;;;21.83;68.90;101653.53;7281159;19;155941;-50
2021/09/04 06:20:24;;;;;;;;;;;;;;;21.86;68.92;101649.28;7290660;19;152169;-50
2021/09/04 06:22:51;;;;;;;;;;;;;;;21.86;68.95;101657.72;7283466;19;152970;-50
2021/09/04 06:25:18;;;;;;;;;;;;;;;21.84;69.21;101652.41;7281571;19;153151;-50
2021/09/04 06:27:47;;;;;;;;;;;;;;;21.84;68.92;101652.41;7283619;19;154624;-50
2021/09/04 06:30:14;;;;;;;;;;;;;;;21.85;68.66;101658.88;7280407;19;151741;-50
2021/09/04 06:32:41;;;;;;;;;;;;;;;21.82;69.02;101659.47;7284663;19;152966;-50
2021/09/04 06:35:08;;;;;;;;;;;;;;;21.82;68.97;101651.00;7279860;19;153845;-49
2021/09/04 06:37:35;;;;;;;;;;;;;;;21.82;69.30;101657.47;7280497;19;151725;-49
2021/09/04 06:40:03;;;;;;;;;;;;;;;21.82;69.09;101653.81;7282942;19;153341;-49
2021/09/04 06:42:30;;;;;;;;;;;;;;;21.82;69.31;101657.47;7285709;19;154030;-50
2021/09/04 06:44:57;;;;;;;;;;;;;;;21.83;69.14;101659.16;7281604;19;152532;-50
2021/09/04 06:47:24;;;;;;;;;;;;;;;21.85;69.00;101661.69;7281891;19;153852;-51
2021/09/04 06:49:51;;;;;;;;;;;;;;;21.85;69.06;101658.88;7281021;19;152171;-50
2021/09/04 06:52:18;;;;;;;;;;;;;;;21.85;69.45;101658.88;7282088;19;153152;-50
2021/09/04 06:54:45;;;;;;;;;;;;;;;21.86;69.34;101664.19;7281434;19;154218;-50
2021/09/04 06:57:12;;;;;;;;;;;;;;;21.86;69.47;101660.53;7281249;19;152263;-50
2021/09/04 06:59:39;;;;;;;;;;;;;;;21.87;69.18;101667.84;7282575;19;153204;-50
2021/09/04 07:02:06;;;;;;;;;;;;;;;21.86;69.31;101666.16;7279970;19;156345;-50
2021/09/04 07:04:33;;;;;;;;;;;;;;;21.86;69.63;101669.81;7286942;19;151925;-49
2021/09/04 07:07:03;;;;;;;;;;;;;;;21.85;69.64;101662.50;7282917;19;153495;-50
2021/09/04 07:09:31;;;;;;;;;;;;;;;21.85;69.65;101665.31;7279300;19;151793;-50
2021/09/04 07:11:58;;;;;;;;;;;;;;;21.87;69.64;101665.03;7280209;19;151906;-51
2021/09/04 07:14:25;;;;;;;;;;;;;;;21.87;69.49;101670.66;7276605;19;154317;-50
2021/09/04 07:16:52;;;;;;;;;;;;;;;21.86;69.46;101661.38;7286183;19;152562;-50
2021/09/04 07:19:19;;;;;;;;;;;;;;;21.87;69.32;101659.41;7286563;19;153286;-50
2021/09/04 07:21:46;;;;;;;;;;;;;;;21.87;69.86;101653.78;7286434;19;154835;-50
2021/09/04 07:24:13;;;;;;;;;;;;;;;21.86;69.38;101664.19;7296124;19;152075;-50
2021/09/04 07:26:40;;;;;;;;;;;;;;;21.85;69.77;101667.31;7287302;19;154277;-49
2021/09/04 07:29:07;;;;;;;;;;;;;;;21.85;69.37;101665.31;7286850;19;151724;-50
2021/09/04 07:31:39;;;;;;;;;;;;;;;21.85;69.57;101670.94;7285041;19;154547;-50
2021/09/04 07:34:06;;;;;;;;;;;;;;;21.85;69.61;101672.94;7287425;19;153660;-50
2021/09/04 07:36:33;;;;;;;;;;;;;;;21.85;69.69;101672.94;7286544;19;152059;-50
2021/09/04 07:39:00;;;;;;;;;;;;;;;21.85;69.75;101667.31;7287621;19;152402;-54
2021/09/04 07:41:27;;;;;;;;;;;;;;;21.87;69.62;101665.03;7286409;19;154070;-50
2021/09/04 07:43:54;;;;;;;;;;;;;;;21.87;69.33;101674.31;7283151;19;151903;-50
2021/09/04 07:46:21;;;;;;;;;;;;;;;21.87;69.57;101676.28;7294126;19;152550;-50
2021/09/04 07:48:49;;;;;;;;;;;;;;;21.87;69.87;101673.47;7285806;19;151869;-51
2021/09/04 07:51:16;;;;;;;;;;;;;;;21.87;69.38;101674.31;7287764;19;153726;-50
2021/09/04 07:53:43;;;;;;;;;;;;;;;21.86;69.44;101672.63;7284049;19;153337;-50
2021/09/04 07:56:10;;;;;;;;;;;;;;;21.86;69.83;101678.25;7285555;19;151903;-50
2021/09/04 07:58:37;;;;;;;;;;;;;;;21.85;70.11;101675.75;7287545;19;152136;-52
2021/09/04 08:01:04;;;;;;;;;;;;;;;21.86;70.03;101669.81;7285033;19;154120;-50
2021/09/04 08:03:32;;;;;;;;;;;;;;;21.86;70.13;101671.78;7288899;19;151717;-50
2021/09/04 08:05:59;;;;;;;;;;;;;;;21.86;70.01;101668.97;7286831;19;153773;-50
2021/09/04 08:08:26;;;;;;;;;;;;;;;21.88;70.18;101663.91;7292710;19;152607;-51
2021/09/04 08:10:55;;;;;;;;;;;;;;;21.87;69.90;101663.06;7287097;19;152674;-50
2021/09/04 08:13:22;;;;;;;;;;;;;;;21.86;70.22;101667.00;7287113;19;154032;-50
2021/09/04 08:15:49;;;;;;;;;;;;;;;21.86;70.04;101674.59;7284434;19;151855;-50
2021/09/04 08:18:16;;;;;;;;;;;;;;;21.86;70.52;101672.63;7288214;19;153174;-50
2021/09/04 08:20:43;;;;;;;;;;;;;;;21.87;70.55;101673.47;7286448;19;153856;-50
2021/09/04 08:23:11;;;;;;;;;;;;;;;21.86;70.04;101675.44;7285914;19;151827;-51
2021/09/04 08:25:38;;;;;;;;;;;;;;;21.86;70.20;101675.44;7284713;19;153602;-50
2021/09/04 08:28:06;;;;;;;;;;;;;;;21.88;70.58;101672.34;7282766;19;154142;-50
2021/09/04 08:30:34;;;;;;;;;;;;;;;21.88;70.26;101676.00;7293713;19;151835;-50
2021/09/04 08:33:02;;;;;;;;;;;;;;;21.89;70.51;101676.81;7282602;19;153269;-50
2021/09/04 08:35:29;;;;;;;;;;;;;;;21.93;70.34;101675.13;7285456;19;152322;-50
2021/09/04 08:37:56;;;;;;;;;;;;;;;21.94;70.71;101671.97;7286326;19;151961;-51
2021/09/04 08:40:23;;;;;;;;;;;;;;;21.96;70.51;101668.88;7284395;19;153893;-51
2021/09/04 08:42:51;;;;;;;;;;;;;;;21.96;70.81;101672.53;7285885;19;152104;-50
2021/09/04 08:45:18;;;;;;;;;;;;;;;21.97;70.76;101673.38;7281200;19;152812;-51
2021/09/04 08:47:45;;;;;;;;;;;;;;;21.99;70.36;101671.09;7283705;19;153201;-50
2021/09/04 08:50:12;;;;;;;;;;;;;;;22.00;70.52;101675.56;7285593;19;151744;-50
2021/09/04 08:52:40;;;;;;;;;;;;;;;22.03;70.97;101669.38;7290136;19;152630;-50
2021/09/04 08:55:07;;;;;;;;;;;;;;;21.96;69.52;101666.91;7286782;19;151821;-51
2021/09/04 08:57:34;;;;;;;;;;;;;;;21.90;68.78;101667.22;7284453;19;153678;-50
2021/09/04 09:00:01;;;;;;;;;;;;;;;21.87;68.37;101665.03;7283995;19;154974;-50
2021/09/04 09:02:29;;;;;;;;;;;;;;;21.93;69.28;101669.50;7284010;19;151540;-51
2021/09/04 09:05:00;;;;;;;;;;;;;;;21.87;68.13;101671.50;7282566;19;153469;-50
2021/09/04 09:07:30;;;;;;;;;;;;;;;21.84;68.44;101662.81;7278316;19;153942;-50
2021/09/04 09:09:57;;;;;;;;;;;;;;;21.81;68.00;101669.88;7285060;19;152119;-50
2021/09/04 09:12:26;;;;;;;;;;;;;;;21.82;67.85;101673.53;7285450;19;153150;-50
2021/09/04 09:14:55;;;;;;;;;;;;;;;21.81;67.54;101669.03;7290921;19;152030;-50
2021/09/04 09:17:24;;;;;;;;;;;;;;;21.80;67.94;101664.56;7284267;19;153747;-50
2021/09/04 09:20:03;;;;;;;;;;;;;;;21.79;67.90;101665.69;7284673;19;154378;-50
2021/09/04 09:22:44;;;;;;;;;;;;;;;21.77;68.10;101670.75;7282636;19;152052;-50
2021/09/04 09:25:14;;;;;;;;;;;;;;;21.76;68.12;101671.94;7285623;19;152478;-50
2021/09/04 09:27:44;;;;;;;;;;;;;;;21.76;68.35;101675.56;7283566;19;153260;-50
2021/09/04 09:30:12;;;;;;;;;;;;;;;21.73;67.82;101677.00;7286588;19;151833;-50
2021/09/04 09:32:51;;;;;;;;;;;;;;;21.73;67.91;101685.44;7282761;19;152641;-50
2021/09/04 09:35:29;;;;;;;;;;;;;;;21.73;68.37;101677.00;7290199;19;153444;-50
2021/09/04 09:37:58;;;;;;;;;;;;;;;21.73;67.99;101673.34;7282311;19;153217;-50
2021/09/04 09:40:25;;;;;;;;;;;;;;;21.72;67.64;101672.50;7283373;19;154156;-50
2021/09/04 09:42:54;;;;;;;;;;;;;;;21.72;67.81;101678.13;7286113;19;152334;-50
2021/09/04 09:45:38;;;;;;;;;;;;;;;21.71;68.28;101673.63;7283532;19;153686;-50
2021/09/04 09:48:05;;;;;;;;;;;;;;;21.72;68.16;101678.13;7281973;19;153268;-50
2021/09/04 09:50:34;;;;;;;;;;;;;;;21.71;68.08;101675.63;7280015;19;152202;-51
2021/09/04 09:53:02;;;;;;;;;;;;;;;21.70;68.17;101666.34;7281922;19;153557;-50
2021/09/04 09:55:30;;;;;;;;;;;;;;;21.70;68.60;101671.97;7283259;19;153292;-50
2021/09/04 09:57:58;;;;;;;;;;;;;;;21.72;68.05;101668.84;7292291;19;151987;-51
2021/09/04 10:00:26;;;;;;;;;;;;;;;21.69;68.53;101667.50;7282517;19;152595;-50
2021/09/04 10:02:56;;;;;;;;;;;;;;;21.71;68.20;101678.44;7285670;19;152082;-50
2021/09/04 10:05:25;;;;;;;;;;;;;;;21.70;68.18;101669.16;7285741;19;153257;-50
2021/09/04 10:07:53;;;;;;;;;;;;;;;21.70;68.40;101676.78;7283861;19;152640;-50
2021/09/04 10:10:22;;;;;;;;;;;;;;;21.69;68.38;101677.91;7284133;19;151961;-50
2021/09/04 10:12:49;;;;;;;;;;;;;;;21.67;68.15;101675.38;7283891;19;151907;-50
2021/09/04 10:15:17;;;;;;;;;;;;;;;21.68;68.34;101682.69;7283528;19;153713;-50
2021/09/04 10:17:45;;;;;;;;;;;;;;;21.67;68.63;101683.81;7283836;19;152027;-50
2021/09/04 10:20:12;;;;;;;;;;;;;;;21.67;68.76;101681.00;7291522;19;153279;-51
2021/09/04 10:22:41;;;;;;;;;;;;;;;21.68;68.42;101688.31;7282699;19;152253;-51
2021/09/04 10:25:11;;;;;;;;;;;;;;;21.65;68.16;101680.47;7285445;19;153210;-51
2021/09/04 10:27:42;;;;;;;;;;;;;;;21.65;67.90;101682.44;7282737;19;154228;-50
2021/09/04 10:30:12;;;;;;;;;;;;;;;21.64;68.08;101686.38;7283345;19;151632;-51
2021/09/04 10:32:54;;;;;;;;;;;;;;;21.63;68.19;101679.06;7282653;19;153128;-51
2021/09/04 10:35:36;;;;;;;;;;;;;;;21.63;68.28;101687.50;7281916;19;154329;-50
2021/09/04 10:38:07;;;;;;;;;;;;;;;21.61;68.56;101687.00;7283897;19;151702;-50
2021/09/04 10:40:35;;;;;;;;;;;;;;;21.63;68.32;101693.97;7282121;19;154330;-50
2021/09/04 10:43:06;;;;;;;;;;;;;;;21.61;68.18;101687.00;7287858;19;153015;-51
2021/09/04 10:45:35;;;;;;;;;;;;;;;21.59;68.17;101683.63;7282047;19;152789;-51
2021/09/04 10:48:12;;;;;;;;;;;;;;;21.59;67.94;101684.47;7283655;19;154106;-51
2021/09/04 10:50:39;;;;;;;;;;;;;;;21.58;68.63;101687.56;7279237;19;151917;-51
2021/09/04 10:53:07;;;;;;;;;;;;;;;21.59;68.09;101689.25;7279344;19;151866;-51
2021/09/04 10:55:36;;;;;;;;;;;;;;;21.57;68.04;101683.94;7282268;19;153428;-52
2021/09/04 10:58:06;;;;;;;;;;;;;;;21.56;68.48;101682.25;7277964;19;152846;-51
2021/09/04 11:00:36;;;;;;;;;;;;;;;21.56;68.77;101687.03;7280790;19;151781;-50
2021/09/04 11:03:05;;;;;;;;;;;;;;;21.54;68.46;101681.72;7280239;19;153566;-51
2021/09/04 11:05:35;;;;;;;;;;;;;;;21.54;68.37;101683.69;7283404;19;152741;-51
2021/09/04 11:08:06;;;;;;;;;;;;;;;21.53;68.59;101682.84;7281025;19;152786;-51
2021/09/04 11:10:34;;;;;;;;;;;;;;;21.55;68.66;101680.56;7279041;19;152425;-51
2021/09/04 11:13:04;;;;;;;;;;;;;;;21.53;68.59;101667.97;7279950;19;153101;-50
2021/09/04 11:15:32;;;;;;;;;;;;;;;21.52;68.31;101681.19;7263451;19;153791;-50
2021/09/04 11:18:00;;;;;;;;;;;;;;;21.51;68.56;101671.06;7272240;19;151696;-50
2021/09/04 11:20:27;;;;;;;;;;;;;;;21.51;68.93;101667.41;7278971;19;152107;-50
2021/09/04 11:22:54;;;;;;;;;;;;;;;21.50;68.99;101665.72;7281007;19;154320;-51
2021/09/04 11:25:21;;;;;;;;;;;;;;;21.50;69.10;101672.19;7290994;19;152056;-50
2021/09/04 11:27:49;;;;;;;;;;;;;;;21.51;69.00;101673.03;7277994;19;153942;-51
2021/09/04 11:30:17;;;;;;;;;;;;;;;21.50;68.75;101658.13;7280880;19;151772;-50
2021/09/04 11:32:44;;;;;;;;;;;;;;;21.51;68.68;101664.59;7281623;19;153528;-51
2021/09/04 11:35:11;;;;;;;;;;;;;;;21.49;68.77;101664.88;7281729;19;152235;-50
2021/09/04 11:37:39;;;;;;;;;;;;;;;21.49;68.42;101680.91;7278395;19;152102;-51
2021/09/04 11:40:09;;;;;;;;;;;;;;;21.48;68.68;101665.22;7282736;19;153602;-51
2021/09/04 11:42:37;;;;;;;;;;;;;;;21.48;68.93;101668.84;7280996;19;152765;-51
2021/09/04 11:45:07;;;;;;;;;;;;;;;21.48;69.14;101676.44;7280126;19;152190;-51
2021/09/04 11:47:35;;;;;;;;;;;;;;;21.48;69.12;101668.03;7288544;19;153820;-51
2021/09/04 11:50:04;;;;;;;;;;;;;;;21.46;69.15;101670.28;7280016;19;152308;-51
2021/09/04 11:52:34;;;;;;;;;;;;;;;21.46;69.15;101665.50;7278648;19;152446;-51
2021/09/04 11:55:04;;;;;;;;;;;;;;;21.46;68.82;101667.47;7281185;19;153816;-50
2021/09/04 11:57:32;;;;;;;;;;;;;;;21.45;69.09;101665.78;7279577;19;152045;-51
2021/09/04 12:00:00;;;;;;;;;;;;;;;21.45;69.17;101662.97;7280732;19;153370;-50
2021/09/04 12:02:27;;;;;;;;;;;;;;;21.44;68.95;101670.56;7284076;19;153669;-51
2021/09/04 12:04:55;;;;;;;;;;;;;;;21.45;69.21;101669.44;7286879;19;151815;-50
2021/09/04 12:07:25;;;;;;;;;;;;;;;21.43;69.24;101659.63;7286900;19;153169;-50
2021/09/04 12:09:53;;;;;;;;;;;;;;;21.44;69.10;101670.56;7294598;19;154424;-50
2021/09/04 12:12:23;;;;;;;;;;;;;;;21.44;69.35;101661.31;7287650;19;153455;-51
2021/09/04 12:14:50;;;;;;;;;;;;;;;21.43;69.21;101670.88;7284930;19;154136;-50
2021/09/04 12:17:17;;;;;;;;;;;;;;;21.42;69.58;101663.56;7283113;19;152043;-51
2021/09/04 12:19:45;;;;;;;;;;;;;;;21.42;69.41;101672.84;7282124;19;153294;-51
2021/09/04 12:22:12;;;;;;;;;;;;;;;21.41;69.44;101665.53;7284798;19;152976;-50
2021/09/04 12:24:39;;;;;;;;;;;;;;;21.42;69.68;101672.00;7286713;19;151637;-51
2021/09/04 12:27:07;;;;;;;;;;;;;;;21.42;69.68;101674.81;7286479;19;154080;-51
2021/09/04 12:29:34;;;;;;;;;;;;;;;21.42;69.30;101675.66;7286546;19;153232;-50